createdAt,value
2023-03-15T00:01:08.954Z,4.77
2023-03-15T00:06:12.963Z,3.70
2023-03-15T00:11:16.963Z,5.73
2023-03-15T00:16:19.940Z,2.77
2023-03-15T00:21:23.406Z,2.63
2023-03-15T00:26:26.175Z,1.63
2023-03-15T05:35:26.676Z,2.77
2023-03-15T05:40:30.294Z,2.53
2023-03-15T05:45:33.645Z,4.00
2023-03-15T05:50:36.603Z,3.50
2023-03-15T05:55:39.457Z,6.13
2023-03-15T06:00:42.244Z,5.20
2023-03-15T06:05:45.239Z,4.93
2023-03-15T06:10:48.022Z,4.97
2023-03-15T06:15:50.826Z,9.50
2023-03-15T06:20:53.642Z,4.33
2023-03-15T06:25:56.450Z,4.50
2023-03-15T06:30:59.318Z,3.00
2023-03-15T06:36:02.260Z,2.77
2023-03-15T06:41:05.357Z,2.50
2023-03-15T06:46:08.204Z,3.90
2023-03-15T06:51:11.154Z,2.87
2023-03-15T06:56:13.991Z,2.27
2023-03-15T07:01:16.914Z,2.20
2023-03-15T07:06:19.741Z,1.37
2023-03-15T07:11:22.623Z,8.27
2023-03-15T07:16:25.927Z,5.60
2023-03-15T07:21:29.241Z,3.20
2023-03-15T07:26:32.001Z,2.80
2023-03-15T07:31:34.801Z,2.03
2023-03-15T07:36:37.653Z,1.90
2023-03-15T07:41:40.398Z,2.37
2023-03-15T07:46:43.192Z,1.83
2023-03-15T07:51:46.079Z,1.57
2023-03-15T07:56:48.881Z,2.27
2023-03-15T08:01:51.690Z,2.87
2023-03-15T08:06:54.664Z,3.37
2023-03-15T08:11:57.358Z,3.17
2023-03-15T08:17:00.165Z,4.47
2023-03-15T08:22:03.258Z,3.93
2023-03-15T08:27:06.213Z,3.13
2023-03-15T08:32:09.337Z,4.43
2023-03-15T08:37:12.976Z,4.50
2023-03-15T08:42:15.806Z,3.60
2023-03-15T08:47:18.564Z,2.87
2023-03-15T08:52:21.920Z,2.87
2023-03-15T08:57:25.981Z,1.87
2023-03-15T09:02:29.609Z,4.63
2023-03-15T09:07:32.713Z,4.07
2023-03-15T09:12:35.791Z,1.70
2023-03-15T09:17:39.594Z,8.03
2023-03-15T09:22:43.544Z,2.17
2023-03-15T09:27:46.460Z,5.60
2023-03-15T09:32:49.355Z,1.30
2023-03-15T09:37:52.490Z,6.17
2023-03-15T09:43:06.777Z,1.53
2023-03-15T09:48:33.442Z,5.00
2023-03-15T09:54:01.857Z,2.97
2023-03-15T09:59:04.923Z,1.40
2023-03-15T10:04:34.599Z,1.63
2023-03-15T10:09:37.401Z,6.93
2023-03-15T10:15:14.934Z,2.50
2023-03-15T10:20:22.004Z,4.40
2023-03-15T10:25:32.579Z,2.67
2023-03-15T10:30:37.547Z,1.60
2023-03-15T10:35:42.840Z,1.30
2023-03-15T10:40:51.843Z,1.97
2023-03-15T10:46:11.583Z,1.43
2023-03-15T10:51:21.233Z,3.00
2023-03-15T10:56:29.518Z,1.77
2023-03-15T11:01:37.535Z,1.47
2023-03-15T11:06:59.605Z,2.70
2023-03-15T11:12:04.772Z,1.87
2023-03-15T11:17:15.847Z,2.43
2023-03-15T11:22:18.715Z,1.27
2023-03-15T11:27:23.623Z,1.40
2023-03-15T11:32:29.380Z,1.67
2023-03-15T11:38:06.147Z,0.90
2023-03-15T11:43:21.578Z,2.40
2023-03-15T11:48:42.402Z,1.73
2023-03-15T11:53:53.144Z,1.33
2023-03-15T11:59:15.462Z,1.17
2023-03-15T12:04:40.878Z,2.90
2023-03-15T12:09:49.745Z,2.30
2023-03-15T12:15:08.434Z,1.50
2023-03-15T12:20:37.828Z,1.50
2023-03-15T12:25:55.012Z,1.57
2023-03-15T12:31:01.850Z,2.13
2023-03-15T12:36:18.224Z,3.83
2023-03-15T12:41:41.318Z,1.67
2023-03-15T12:46:43.984Z,2.47
2023-03-15T12:51:59.519Z,1.10
2023-03-15T12:57:04.147Z,2.97
2023-03-15T13:02:42.070Z,2.70
2023-03-15T13:08:06.891Z,7.10
2023-03-15T13:13:27.746Z,2.73
2023-03-15T13:18:34.394Z,5.73
2023-03-15T13:23:38.735Z,4.53
2023-03-15T13:28:50.688Z,4.87
2023-03-15T13:33:58.964Z,5.93
2023-03-15T13:39:01.756Z,5.93
2023-03-15T13:44:12.909Z,2.80
2023-03-15T13:49:15.877Z,1.77
2023-03-15T13:54:29.105Z,1.50
2023-03-15T13:59:42.973Z,2.60
2023-03-15T14:04:53.273Z,3.63
2023-03-15T14:10:26.441Z,3.87
2023-03-15T14:15:37.441Z,1.43
2023-03-15T14:20:47.443Z,2.73
2023-03-15T14:26:02.245Z,2.23
2023-03-15T14:31:05.127Z,6.27
2023-03-15T14:36:21.665Z,3.27
2023-03-15T14:41:34.086Z,3.23
2023-03-15T14:46:37.166Z,1.73
2023-03-15T14:51:40.032Z,1.40
2023-03-15T14:56:44.498Z,5.00
2023-03-15T15:01:57.146Z,3.57
2023-03-15T15:07:00.233Z,1.40
2023-03-15T15:12:03.080Z,2.50
2023-03-15T15:17:06.184Z,3.10
2023-03-15T15:22:11.056Z,2.00
2023-03-15T15:27:14.451Z,2.47
2023-03-15T15:32:17.224Z,2.63
2023-03-15T15:37:19.992Z,1.70
2023-03-15T15:42:22.804Z,3.50
2023-03-15T15:47:25.586Z,1.80
2023-03-15T15:52:28.826Z,5.73
2023-03-15T15:57:31.833Z,3.10
2023-03-15T16:02:34.633Z,2.90
2023-03-15T16:07:40.758Z,3.73
2023-03-15T16:12:43.535Z,10.37
2023-03-15T16:17:47.136Z,1.40
2023-03-15T16:22:52.702Z,1.77
2023-03-15T16:27:56.462Z,2.13
2023-03-15T16:32:59.325Z,2.30
2023-03-15T16:38:02.705Z,8.97
2023-03-15T16:43:06.395Z,3.37
2023-03-15T16:48:09.300Z,3.20
2023-03-15T16:53:13.628Z,2.60
2023-03-15T16:58:19.964Z,7.77
2023-03-15T17:03:22.846Z,2.13
2023-03-15T17:08:25.842Z,6.20
2023-03-15T17:13:30.250Z,3.40
2023-03-15T17:18:34.364Z,2.57
2023-03-15T17:23:37.153Z,6.50
2023-03-15T17:28:41.046Z,5.77
2023-03-15T17:33:44.720Z,7.37
2023-03-15T17:38:48.115Z,6.03
2023-03-15T17:43:51.779Z,3.37
2023-03-15T17:48:56.017Z,7.87
2023-03-15T17:53:59.643Z,6.03
2023-03-15T17:59:02.461Z,6.43
2023-03-15T18:04:06.128Z,6.53
2023-03-15T18:09:17.928Z,7.27
2023-03-15T18:14:20.927Z,6.87
2023-03-15T18:19:23.748Z,6.07
2023-03-15T18:24:26.550Z,17.20
2023-03-15T18:29:29.348Z,13.73
2023-03-15T18:34:32.091Z,10.10
2023-03-15T18:39:34.932Z,12.13
2023-03-15T18:44:37.970Z,7.77
2023-03-15T18:49:41.032Z,12.10
2023-03-15T18:54:43.831Z,9.60
2023-03-15T18:59:46.924Z,15.23
2023-03-15T19:04:49.756Z,8.47
2023-03-15T19:09:52.586Z,13.67
2023-03-15T19:14:55.420Z,10.07
2023-03-15T19:19:58.321Z,8.97
2023-03-15T19:25:01.351Z,10.87
2023-03-15T19:30:07.394Z,17.90
2023-03-15T19:35:12.080Z,16.07
2023-03-15T19:40:16.028Z,10.23
2023-03-15T19:45:18.842Z,6.73
2023-03-15T19:50:21.755Z,8.00
2023-03-15T19:55:28.433Z,7.70
2023-03-15T20:00:32.370Z,10.07
2023-03-15T20:05:37.171Z,11.17
2023-03-15T20:10:39.951Z,7.57
2023-03-15T20:15:44.854Z,7.13
2023-03-15T20:20:47.648Z,9.67
2023-03-15T20:25:50.840Z,11.10
2023-03-15T20:30:53.807Z,11.53
2023-03-15T20:35:56.714Z,9.57
2023-03-15T20:40:59.695Z,9.73
2023-03-15T20:46:04.534Z,20.40
2023-03-15T20:51:07.384Z,16.70
2023-03-15T20:56:10.215Z,13.73
2023-03-15T21:01:15.045Z,14.00
2023-03-15T21:06:17.881Z,15.40
2023-03-15T21:11:20.656Z,11.80
2023-03-15T21:16:26.011Z,16.50
2023-03-15T21:21:29.775Z,14.77
2023-03-15T21:26:32.577Z,19.90
2023-03-15T21:31:36.607Z,14.80
2023-03-15T21:36:39.422Z,14.00
2023-03-15T21:41:42.224Z,12.33
2023-03-15T21:46:45.162Z,28.27
2023-03-15T21:51:48.025Z,10.47
2023-03-15T21:56:53.049Z,8.53
2023-03-15T22:01:59.128Z,9.53
2023-03-15T22:07:01.866Z,9.00
2023-03-15T22:12:08.347Z,9.10
2023-03-15T22:17:11.218Z,17.90
2023-03-15T22:22:14.025Z,5.97
2023-03-15T22:27:16.762Z,8.90
2023-03-15T22:32:19.599Z,10.93
2023-03-15T22:37:22.437Z,6.77
2023-03-15T22:42:25.206Z,6.00
2023-03-15T22:47:28.587Z,4.17
2023-03-15T22:52:31.334Z,6.83
2023-03-15T22:57:34.196Z,4.80
2023-03-15T23:02:37.070Z,8.03
2023-03-15T23:07:40.390Z,10.33
2023-03-15T23:12:43.457Z,7.33
2023-03-15T23:17:46.995Z,8.03
2023-03-15T23:22:50.357Z,8.27
2023-03-15T23:27:53.112Z,5.17
2023-03-15T23:32:58.857Z,6.13
2023-03-15T23:38:01.924Z,6.80
2023-03-15T23:43:05.931Z,11.07
2023-03-15T23:48:08.694Z,5.93
2023-03-15T23:53:11.483Z,10.03
2023-03-15T23:58:14.484Z,12.47
